createdAt,value
2019-01-11T00:00:18.004Z,75.60
2019-01-11T00:01:01.489Z,75.60
2019-01-11T00:01:46.966Z,75.70
2019-01-11T00:02:25.957Z,75.70
2019-01-11T00:03:05.243Z,75.60
2019-01-11T00:03:43.922Z,75.60
2019-01-11T00:04:22.644Z,75.60
2019-01-11T00:05:02.664Z,75.70
2019-01-11T00:05:41.348Z,75.60
2019-01-11T00:06:20.575Z,75.50
2019-01-11T00:06:59.662Z,75.60
2019-01-11T00:07:38.387Z,75.60
2019-01-11T00:08:17.091Z,75.50
2019-01-11T00:08:55.882Z,75.60
2019-01-11T00:09:35.203Z,75.50
2019-01-11T00:10:14.412Z,75.50
2019-01-11T00:10:54.053Z,75.60
2019-01-11T00:11:33.480Z,75.50
2019-01-11T00:12:12.975Z,75.50
2019-01-11T00:12:51.703Z,75.50
2019-01-11T00:13:30.495Z,75.50
2019-01-11T00:14:09.243Z,75.60
2019-01-11T00:14:47.965Z,75.60
2019-01-11T00:15:27.139Z,75.60
2019-01-11T00:16:06.403Z,75.70
2019-01-11T00:16:45.470Z,75.60
2019-01-11T00:17:24.911Z,76.40
2019-01-11T00:18:04.008Z,75.60
2019-01-11T00:18:42.619Z,75.60
2019-01-11T00:19:22.080Z,75.60
2019-01-11T00:20:03.722Z,75.60
2019-01-11T00:20:40.774Z,75.70
2019-01-11T00:21:19.495Z,75.70
2019-01-11T00:21:58.473Z,75.60
2019-01-11T00:22:37.422Z,75.60
2019-01-11T00:23:16.369Z,75.70
2019-01-11T00:23:55.695Z,75.70
2019-01-11T00:24:34.350Z,75.70
2019-01-11T00:25:13.670Z,75.70
2019-01-11T00:25:53.282Z,75.70
2019-01-11T00:26:32.704Z,75.70
2019-01-11T00:27:11.783Z,75.80
2019-01-11T00:27:50.497Z,76.50
2019-01-11T00:28:29.887Z,75.70
2019-01-11T00:29:08.924Z,75.70
2019-01-11T00:29:47.626Z,75.70
2019-01-11T00:30:26.484Z,75.70
2019-01-11T00:31:05.361Z,75.70
2019-01-11T00:31:44.944Z,75.70
2019-01-11T00:32:24.405Z,75.70
2019-01-11T00:33:03.686Z,75.80
2019-01-11T00:33:43.059Z,75.80
2019-01-11T00:34:21.790Z,75.80
2019-01-11T00:35:00.474Z,75.80
2019-01-11T00:35:39.269Z,75.80
2019-01-11T00:36:18.549Z,75.90
2019-01-11T00:36:57.738Z,75.80
2019-01-11T00:37:36.485Z,75.80
2019-01-11T00:38:15.466Z,75.80
2019-01-11T00:38:54.740Z,75.80
2019-01-11T00:39:34.121Z,75.80
2019-01-11T00:40:13.604Z,75.80
2019-01-11T00:40:52.934Z,75.80
2019-01-11T00:41:31.600Z,75.80
2019-01-11T00:42:10.435Z,75.80
2019-01-11T00:42:49.349Z,75.80
2019-01-11T00:43:28.469Z,75.80
2019-01-11T00:44:07.806Z,75.80
2019-01-11T00:44:47.268Z,75.90
2019-01-11T00:45:26.060Z,75.90
2019-01-11T00:46:05.275Z,75.90
2019-01-11T00:46:44.017Z,75.90
2019-01-11T00:47:22.704Z,75.80
2019-01-11T00:48:01.874Z,75.90
2019-01-11T00:48:40.740Z,75.90
2019-01-11T00:49:19.863Z,75.90
2019-01-11T00:49:58.827Z,75.80
2019-01-11T00:50:38.155Z,75.80
2019-01-11T00:51:17.225Z,75.90
2019-01-11T00:51:56.592Z,75.80
2019-01-11T00:52:36.021Z,75.80
2019-01-11T00:53:15.068Z,75.20
2019-01-11T00:53:53.726Z,75.90
2019-01-11T00:54:33.060Z,75.90
2019-01-11T00:55:11.806Z,76.00
2019-01-11T00:55:50.395Z,76.00
2019-01-11T00:56:30.495Z,76.00
2019-01-11T00:57:09.622Z,76.00
2019-01-11T00:57:48.629Z,75.90
2019-01-11T00:58:28.031Z,75.90
2019-01-11T00:59:07.268Z,75.90
2019-01-11T00:59:46.537Z,75.90
2019-01-11T01:00:26.230Z,75.90
2019-01-11T01:01:04.903Z,76.00
2019-01-11T01:01:43.549Z,76.00
2019-01-11T01:02:22.256Z,76.00
2019-01-11T01:03:01.105Z,76.00
2019-01-11T01:03:40.177Z,76.10
2019-01-11T01:04:19.540Z,76.00
2019-01-11T01:04:58.742Z,76.00
2019-01-11T01:05:38.038Z,76.00
2019-01-11T01:06:16.826Z,76.10
2019-01-11T01:06:56.417Z,76.00
2019-01-11T01:07:35.084Z,76.00
2019-01-11T01:08:15.327Z,76.00
2019-01-11T01:08:54.688Z,76.10
2019-01-11T01:09:34.125Z,76.00
2019-01-11T01:10:12.948Z,76.00
2019-01-11T01:10:51.671Z,76.00
2019-01-11T01:11:30.703Z,76.00
2019-01-11T01:12:10.124Z,75.90
2019-01-11T01:12:49.401Z,76.00
2019-01-11T01:13:28.730Z,75.90
2019-01-11T01:14:08.300Z,75.90
2019-01-11T01:14:47.520Z,75.90
2019-01-11T01:15:26.977Z,75.90
2019-01-11T01:16:05.771Z,76.20
2019-01-11T01:16:44.445Z,75.80
2019-01-11T01:17:24.006Z,75.80
2019-01-11T01:18:02.885Z,75.80
2019-01-11T01:18:41.570Z,75.80
2019-01-11T01:19:20.920Z,75.70
2019-01-11T01:20:00.362Z,75.70
2019-01-11T01:20:39.671Z,75.70
2019-01-11T01:21:18.857Z,75.70
2019-01-11T01:21:58.314Z,75.60
2019-01-11T01:22:37.708Z,75.60
2019-01-11T01:23:16.550Z,75.60
2019-01-11T01:23:55.743Z,75.60
2019-01-11T01:24:34.620Z,75.60
2019-01-11T01:25:13.339Z,75.60
2019-01-11T01:25:52.784Z,75.60
2019-01-11T01:26:31.406Z,76.30
2019-01-11T01:27:10.284Z,75.50
2019-01-11T01:27:48.989Z,75.50
2019-01-11T01:28:27.799Z,75.50
2019-01-11T01:29:06.477Z,75.40
2019-01-11T01:29:45.671Z,75.30
2019-01-11T01:30:24.369Z,75.40
2019-01-11T01:31:03.092Z,75.40
2019-01-11T01:31:42.589Z,75.40
2019-01-11T01:32:22.048Z,75.40
2019-01-11T01:33:01.187Z,75.30
2019-01-11T01:33:40.525Z,75.40
2019-01-11T01:34:19.267Z,75.40
2019-01-11T01:34:57.980Z,75.30
2019-01-11T01:35:36.649Z,75.40
2019-01-11T01:36:15.425Z,75.30
2019-01-11T01:36:54.271Z,75.30
2019-01-11T01:37:32.897Z,75.40
2019-01-11T01:38:12.294Z,75.40
2019-01-11T01:38:51.758Z,75.30
2019-01-11T01:39:30.554Z,75.30
2019-01-11T01:40:11.268Z,75.30
2019-01-11T01:40:50.907Z,75.30
2019-01-11T01:41:29.974Z,75.20
2019-01-11T01:42:09.462Z,75.20
2019-01-11T01:42:48.402Z,75.20
2019-01-11T01:43:27.033Z,75.20
2019-01-11T01:44:05.753Z,75.10
2019-01-11T01:44:44.664Z,75.20
2019-01-11T01:45:23.752Z,75.00
2019-01-11T01:46:02.870Z,75.10
2019-01-11T01:46:42.036Z,75.10
2019-01-11T01:47:21.381Z,75.10
2019-01-11T01:48:00.041Z,75.00
2019-01-11T01:48:39.291Z,75.00
2019-01-11T01:49:18.350Z,75.00
2019-01-11T01:49:57.089Z,75.00
2019-01-11T01:50:35.765Z,75.00
2019-01-11T01:51:14.554Z,75.00
2019-01-11T01:51:53.593Z,75.00
2019-01-11T01:52:32.887Z,75.00
2019-01-11T01:53:12.385Z,75.00
2019-01-11T01:53:51.563Z,75.00
2019-01-11T01:54:30.695Z,74.90
2019-01-11T01:55:10.384Z,75.00
2019-01-11T01:55:49.804Z,74.90
2019-01-11T01:56:29.302Z,74.90
2019-01-11T01:57:07.946Z,74.80
2019-01-11T01:57:47.336Z,74.80
2019-01-11T01:58:26.022Z,74.80
2019-01-11T01:59:05.131Z,74.80
2019-01-11T01:59:43.857Z,74.80
2019-01-11T02:00:22.895Z,74.80
2019-01-11T02:01:01.599Z,74.80
2019-01-11T02:01:40.793Z,74.80
2019-01-11T02:02:19.790Z,74.70
2019-01-11T02:02:59.023Z,74.70
2019-01-11T02:03:38.319Z,74.70
2019-01-11T02:04:17.092Z,74.60
2019-01-11T02:04:55.975Z,74.70
2019-01-11T02:05:35.211Z,74.60
2019-01-11T02:06:14.688Z,74.60
2019-01-11T02:06:53.334Z,74.60
2019-01-11T02:07:32.505Z,74.60
2019-01-11T02:08:11.211Z,74.60
2019-01-11T02:08:49.929Z,74.60
2019-01-11T02:09:28.554Z,74.60
2019-01-11T02:10:07.983Z,74.50
2019-01-11T02:10:46.934Z,74.60
2019-01-11T02:11:26.219Z,74.60
2019-01-11T02:12:05.436Z,74.60
2019-01-11T02:12:44.817Z,74.60
2019-01-11T02:13:24.381Z,74.60
2019-01-11T02:14:22.813Z,74.70
2019-01-11T02:15:01.495Z,74.60
2019-01-11T02:15:40.524Z,74.60
2019-01-11T02:16:19.138Z,74.60
2019-01-11T02:16:58.526Z,74.60
2019-01-11T02:17:38.016Z,74.70
2019-01-11T02:18:16.734Z,74.60
2019-01-11T02:18:55.429Z,74.60
2019-01-11T02:19:34.736Z,74.60
2019-01-11T02:20:18.867Z,74.50
2019-01-11T02:20:57.673Z,74.50
2019-01-11T02:21:36.801Z,74.50
2019-01-11T02:22:15.627Z,74.50
2019-01-11T02:22:54.935Z,74.60
2019-01-11T02:23:34.286Z,74.50
2019-01-11T02:24:13.605Z,75.30
2019-01-11T02:24:52.870Z,74.50
2019-01-11T02:25:32.348Z,74.50
2019-01-11T02:26:11.673Z,74.50
2019-01-11T02:26:50.363Z,74.50
2019-01-11T02:27:28.890Z,74.50
2019-01-11T02:28:07.578Z,74.40
2019-01-11T02:28:46.328Z,74.40
2019-01-11T02:29:25.602Z,74.40
2019-01-11T02:30:05.066Z,74.40
2019-01-11T02:30:43.815Z,74.40
2019-01-11T02:31:23.163Z,74.40
2019-01-11T02:32:01.981Z,74.40
2019-01-11T02:32:40.646Z,74.30
2019-01-11T02:33:24.820Z,74.30
2019-01-11T02:33:59.392Z,74.50
2019-01-11T02:34:38.350Z,74.50
2019-01-11T02:35:17.587Z,74.50
2019-01-11T02:35:57.214Z,74.30
2019-01-11T02:36:36.210Z,74.30
2019-01-11T02:37:14.877Z,74.30
2019-01-11T02:37:53.722Z,74.30
2019-01-11T02:38:32.470Z,74.30
2019-01-11T02:39:12.119Z,74.30
2019-01-11T02:39:50.790Z,74.40
2019-01-11T02:40:29.812Z,74.30
2019-01-11T02:41:08.697Z,75.10
2019-01-11T02:41:47.765Z,74.30
2019-01-11T02:42:26.917Z,74.20
2019-01-11T02:43:06.446Z,74.30
2019-01-11T02:43:45.630Z,74.30
2019-01-11T02:44:24.353Z,74.20
2019-01-11T02:45:03.087Z,74.30
2019-01-11T02:45:41.794Z,74.30
2019-01-11T02:46:20.534Z,74.20
2019-01-11T02:46:59.487Z,74.20
2019-01-11T02:47:38.740Z,74.20
2019-01-11T02:48:17.474Z,75.00
2019-01-11T02:48:56.253Z,74.10
2019-01-11T02:49:40.091Z,74.10
2019-01-11T02:50:16.469Z,74.10
2019-01-11T02:50:55.635Z,74.10
2019-01-11T02:51:35.408Z,74.10
2019-01-11T02:52:15.288Z,74.20
2019-01-11T02:52:54.224Z,74.10
2019-01-11T02:53:32.849Z,74.00
2019-01-11T02:54:11.847Z,74.00
2019-01-11T02:54:50.788Z,74.00
2019-01-11T02:55:29.630Z,74.00
2019-01-11T02:56:08.712Z,74.00
2019-01-11T02:56:48.194Z,74.10
2019-01-11T02:57:27.557Z,74.00
2019-01-11T02:58:06.700Z,74.10
2019-01-11T02:58:45.339Z,74.00
2019-01-11T02:59:24.492Z,74.00
2019-01-11T03:00:03.228Z,74.00
2019-01-11T03:00:41.930Z,74.00
2019-01-11T03:01:20.610Z,74.00
2019-01-11T03:01:59.260Z,74.00
2019-01-11T03:02:38.044Z,74.00
2019-01-11T03:03:17.980Z,74.00
2019-01-11T03:03:57.269Z,74.00
2019-01-11T03:04:36.674Z,74.00
2019-01-11T03:05:15.454Z,74.00
2019-01-11T03:05:54.696Z,74.00
2019-01-11T03:06:33.414Z,74.50
2019-01-11T03:07:12.852Z,74.00
2019-01-11T03:07:51.639Z,74.00
2019-01-11T03:08:30.907Z,74.00
2019-01-11T03:09:10.677Z,74.10
2019-01-11T03:09:49.539Z,74.00
2019-01-11T03:10:28.767Z,74.00
2019-01-11T03:11:07.407Z,74.00
2019-01-11T03:11:46.130Z,74.00
2019-01-11T03:12:25.091Z,74.00
2019-01-11T03:13:04.253Z,74.10
2019-01-11T03:13:43.682Z,74.10
2019-01-11T03:14:22.515Z,74.20
2019-01-11T03:15:01.285Z,74.10
2019-01-11T03:15:40.777Z,74.00
2019-01-11T03:16:19.829Z,74.00
2019-01-11T03:16:59.399Z,73.90
2019-01-11T03:17:38.222Z,73.90
2019-01-11T03:18:16.901Z,73.90
2019-01-11T03:18:55.903Z,73.80
2019-01-11T03:19:34.588Z,73.80
2019-01-11T03:20:13.400Z,73.80
2019-01-11T03:20:52.228Z,73.80
2019-01-11T03:21:30.861Z,73.80
2019-01-11T03:22:10.310Z,73.80
2019-01-11T03:22:49.658Z,73.70
2019-01-11T03:23:29.201Z,73.70
2019-01-11T03:24:08.452Z,73.60
2019-01-11T03:24:47.172Z,73.70
2019-01-11T03:25:25.824Z,73.60
2019-01-11T03:26:04.538Z,73.60
2019-01-11T03:26:43.489Z,73.60
2019-01-11T03:27:22.482Z,73.60
2019-01-11T03:28:01.178Z,73.60
2019-01-11T03:28:40.535Z,73.70
2019-01-11T03:29:19.821Z,73.60
2019-01-11T03:29:58.526Z,73.60
2019-01-11T03:30:38.064Z,73.70
2019-01-11T03:31:25.712Z,73.60
2019-01-11T03:32:04.421Z,73.70
2019-01-11T03:32:43.418Z,73.70
2019-01-11T03:33:22.828Z,73.70
2019-01-11T03:34:02.122Z,73.70
2019-01-11T03:34:55.213Z,73.60
2019-01-11T03:35:33.875Z,73.80
2019-01-11T03:36:12.580Z,73.70
2019-01-11T03:36:52.305Z,73.80
2019-01-11T03:37:31.066Z,73.80
2019-01-11T03:38:09.852Z,73.60
2019-01-11T03:38:48.591Z,73.70
2019-01-11T03:39:27.866Z,73.70
2019-01-11T03:40:07.149Z,73.60
2019-01-11T03:40:45.926Z,73.70
2019-01-11T03:41:24.643Z,73.60
2019-01-11T03:42:11.698Z,73.60
2019-01-11T03:42:51.300Z,73.60
2019-01-11T03:43:31.407Z,73.50
2019-01-11T03:44:10.787Z,73.60
2019-01-11T03:44:50.296Z,73.70
2019-01-11T03:45:30.181Z,73.50
2019-01-11T03:46:09.398Z,73.60
2019-01-11T03:46:48.358Z,73.60
2019-01-11T03:47:27.028Z,73.60
2019-01-11T03:48:05.703Z,73.50
2019-01-11T03:48:44.305Z,73.30
2019-01-11T03:49:22.968Z,73.60
2019-01-11T03:50:02.345Z,73.30
2019-01-11T03:50:41.814Z,73.50
2019-01-11T03:51:21.303Z,73.60
2019-01-11T03:52:00.868Z,73.50
2019-01-11T03:52:40.263Z,73.30
2019-01-11T03:53:19.927Z,73.20
2019-01-11T03:53:58.835Z,73.20
2019-01-11T03:54:38.057Z,73.30
2019-01-11T03:55:17.970Z,73.20
2019-01-11T03:55:57.632Z,73.20
2019-01-11T03:56:36.315Z,73.10
2019-01-11T03:57:14.959Z,73.10
2019-01-11T03:57:54.010Z,73.20
2019-01-11T03:58:33.299Z,73.00
2019-01-11T03:59:12.062Z,73.20
2019-01-11T03:59:51.440Z,73.00
2019-01-11T04:00:30.703Z,73.10
2019-01-11T04:01:09.596Z,73.10
2019-01-11T04:01:48.548Z,72.90
2019-01-11T04:02:27.290Z,72.80
2019-01-11T04:03:06.333Z,72.80
2019-01-11T04:03:45.471Z,72.80
2019-01-11T04:04:24.846Z,72.80
2019-01-11T04:05:03.491Z,72.60
2019-01-11T04:05:42.407Z,72.50
2019-01-11T04:06:21.012Z,72.50
2019-01-11T04:06:59.744Z,72.50
2019-01-11T04:07:38.469Z,72.50
2019-01-11T04:08:17.167Z,72.40
2019-01-11T04:08:55.869Z,72.50
2019-01-11T04:09:34.858Z,72.30
2019-01-11T04:10:17.168Z,72.40
2019-01-11T04:10:56.123Z,72.40
2019-01-11T04:11:35.153Z,72.40
2019-01-11T04:12:15.348Z,72.30
2019-01-11T04:12:54.494Z,72.30
2019-01-11T04:13:33.191Z,72.50
2019-01-11T04:14:11.854Z,72.50
2019-01-11T04:14:50.516Z,72.20
2019-01-11T04:15:29.278Z,72.20
2019-01-11T04:16:07.995Z,72.20
2019-01-11T04:16:47.350Z,72.10
2019-01-11T04:17:26.502Z,72.10
2019-01-11T04:18:26.805Z,72.90
2019-01-11T04:19:09.841Z,72.10
2019-01-11T04:19:49.216Z,72.00
2019-01-11T04:20:28.060Z,72.00
2019-01-11T04:21:09.674Z,72.10
2019-01-11T04:22:16.047Z,71.90
2019-01-11T04:22:58.178Z,72.10
2019-01-11T04:23:37.254Z,72.10
2019-01-11T04:24:15.924Z,72.00
2019-01-11T04:25:08.324Z,72.00
2019-01-11T04:25:48.778Z,71.90
2019-01-11T04:26:27.850Z,72.00
2019-01-11T04:27:06.678Z,71.90
2019-01-11T04:27:45.433Z,72.00
2019-01-11T04:28:24.107Z,71.80
2019-01-11T04:29:02.793Z,71.80
2019-01-11T04:29:41.584Z,71.90
2019-01-11T04:30:24.502Z,72.00
2019-01-11T04:31:03.153Z,72.00
2019-01-11T04:31:42.673Z,72.00
2019-01-11T04:32:21.976Z,71.90
2019-01-11T04:33:00.643Z,71.80
2019-01-11T04:33:39.288Z,71.80
2019-01-11T04:34:18.291Z,71.80
2019-01-11T04:34:57.440Z,71.90
2019-01-11T04:35:36.783Z,71.90
2019-01-11T04:36:15.917Z,72.00
2019-01-11T04:36:54.709Z,71.90
2019-01-11T04:37:33.458Z,72.00
2019-01-11T04:38:12.426Z,72.00
2019-01-11T04:38:51.175Z,72.80
2019-01-11T04:39:29.889Z,71.90
2019-01-11T04:40:09.239Z,72.00
2019-01-11T04:40:48.344Z,71.80
2019-01-11T04:41:27.587Z,71.90
2019-01-11T04:42:06.643Z,71.80
2019-01-11T04:42:46.454Z,71.90
2019-01-11T04:43:25.733Z,71.80
2019-01-11T04:44:04.368Z,71.80
2019-01-11T04:44:43.761Z,71.80
2019-01-11T04:45:22.538Z,71.80
2019-01-11T04:46:01.837Z,71.70
2019-01-11T04:46:40.600Z,72.00
2019-01-11T04:47:19.509Z,71.70
2019-01-11T04:47:58.796Z,71.80
2019-01-11T04:48:38.102Z,71.90
2019-01-11T04:49:16.809Z,71.70
2019-01-11T04:49:56.501Z,71.80
2019-01-11T04:50:35.905Z,71.80
2019-01-11T04:51:14.628Z,71.70
2019-01-11T04:51:53.517Z,71.70
2019-01-11T04:52:32.212Z,71.70
2019-01-11T04:53:10.953Z,71.70
2019-01-11T04:53:51.052Z,71.80
2019-01-11T04:54:30.066Z,71.70
2019-01-11T04:55:09.759Z,71.70
2019-01-11T04:55:48.963Z,71.60
2019-01-11T04:56:28.229Z,71.60
2019-01-11T04:57:07.411Z,71.60
2019-01-11T04:57:46.867Z,71.30
2019-01-11T04:58:26.170Z,71.70
2019-01-11T04:59:05.341Z,71.60
2019-01-11T04:59:44.825Z,71.60
2019-01-11T05:00:25.261Z,71.60
2019-01-11T05:01:03.844Z,71.60
2019-01-11T05:01:42.528Z,71.60
2019-01-11T05:02:21.393Z,72.20
2019-01-11T05:03:00.304Z,71.50
2019-01-11T05:03:39.400Z,71.30
2019-01-11T05:04:19.128Z,71.40
2019-01-11T05:04:58.355Z,71.50
2019-01-11T05:05:37.865Z,71.50
2019-01-11T05:06:17.376Z,71.60
2019-01-11T05:06:56.882Z,71.70
2019-01-11T05:07:36.182Z,71.60
2019-01-11T05:08:14.951Z,71.60
2019-01-11T05:08:53.691Z,71.60
2019-01-11T05:09:32.359Z,71.60
2019-01-11T05:10:11.700Z,71.60
2019-01-11T05:10:52.927Z,71.60
2019-01-11T05:11:31.521Z,71.60
2019-01-11T05:12:10.447Z,71.50
2019-01-11T05:12:49.651Z,71.60
2019-01-11T05:13:42.502Z,71.60
2019-01-11T05:14:21.421Z,71.40
2019-01-11T05:15:00.458Z,71.40
2019-01-11T05:15:57.719Z,71.50
2019-01-11T05:16:39.569Z,71.20
2019-01-11T05:17:16.568Z,71.30
2019-01-11T05:17:55.373Z,71.40
2019-01-11T05:18:34.173Z,71.30
2019-01-11T05:19:12.859Z,71.20
2019-01-11T05:19:51.788Z,71.30
2019-01-11T05:20:30.837Z,71.10
2019-01-11T05:21:10.154Z,71.30
2019-01-11T05:21:49.581Z,71.30
2019-01-11T05:22:29.235Z,71.40
2019-01-11T05:23:08.714Z,71.30
2019-01-11T05:23:48.132Z,71.40
2019-01-11T05:24:28.807Z,71.20
2019-01-11T05:25:07.598Z,71.30
2019-01-11T05:25:46.909Z,71.10
2019-01-11T05:26:26.026Z,71.20
2019-01-11T05:27:04.634Z,71.20
2019-01-11T05:27:43.673Z,71.20
2019-01-11T05:28:23.179Z,71.10
2019-01-11T05:29:02.179Z,71.10
2019-01-11T05:29:41.534Z,71.10
2019-01-11T05:30:22.094Z,71.20
2019-01-11T05:31:01.093Z,71.90
2019-01-11T05:31:40.462Z,71.10
2019-01-11T05:32:19.700Z,71.10
2019-01-11T05:32:58.451Z,71.20
2019-01-11T05:33:37.199Z,71.20
2019-01-11T05:34:15.837Z,71.20
2019-01-11T05:34:54.486Z,71.20
2019-01-11T05:35:33.152Z,71.00
2019-01-11T05:36:12.356Z,71.10
2019-01-11T05:36:51.699Z,71.10
2019-01-11T05:37:30.905Z,71.20
2019-01-11T05:38:10.615Z,71.20
2019-01-11T05:38:49.742Z,71.10
2019-01-11T05:39:29.272Z,71.20
2019-01-11T05:40:09.380Z,71.00
2019-01-11T05:40:48.824Z,70.90
2019-01-11T05:41:28.265Z,71.00
2019-01-11T05:42:07.035Z,71.00
2019-01-11T05:42:45.871Z,71.00
2019-01-11T05:43:24.904Z,71.10
2019-01-11T05:44:05.282Z,71.00
2019-01-11T05:44:44.049Z,70.90
2019-01-11T05:45:23.124Z,70.80
2019-01-11T05:46:02.675Z,70.90
2019-01-11T05:46:41.870Z,70.90
2019-01-11T05:47:21.495Z,70.90
2019-01-11T05:48:00.677Z,70.80
2019-01-11T05:48:40.136Z,70.70
2019-01-11T05:49:19.717Z,70.70
2019-01-11T05:49:59.265Z,70.50
2019-01-11T05:50:38.143Z,70.50
2019-01-11T05:51:16.928Z,70.60
2019-01-11T05:51:55.688Z,70.60
2019-01-11T05:52:34.704Z,70.40
2019-01-11T05:53:13.999Z,70.40
2019-01-11T05:53:52.705Z,70.40
2019-01-11T05:54:32.152Z,70.50
2019-01-11T05:55:12.981Z,70.50
2019-01-11T05:55:53.189Z,70.60
2019-01-11T05:56:32.605Z,70.40
2019-01-11T05:57:12.153Z,70.60
2019-01-11T05:58:09.281Z,70.30
2019-01-11T05:59:16.055Z,70.10
2019-01-11T05:59:55.068Z,70.20
2019-01-11T06:00:34.359Z,70.20
2019-01-11T06:01:13.089Z,70.10
2019-01-11T06:01:51.798Z,70.10
2019-01-11T06:02:30.681Z,69.90
2019-01-11T06:03:09.884Z,70.00
2019-01-11T06:03:49.234Z,69.80
2019-01-11T06:04:45.384Z,70.00
2019-01-11T06:05:23.993Z,69.90
2019-01-11T06:06:03.623Z,69.90
2019-01-11T06:06:59.319Z,70.00
2019-01-11T06:08:02.135Z,70.00
2019-01-11T06:08:41.339Z,70.00
2019-01-11T06:09:20.582Z,69.90
2019-01-11T06:09:59.473Z,69.80
2019-01-11T06:10:38.848Z,69.80
2019-01-11T06:11:17.473Z,69.90
2019-01-11T06:11:56.262Z,69.80
2019-01-11T06:12:35.023Z,69.70
2019-01-11T06:13:14.041Z,69.70
2019-01-11T06:13:53.245Z,69.70
2019-01-11T06:14:31.921Z,69.80
2019-01-11T06:15:10.885Z,69.80
2019-01-11T06:15:49.565Z,69.80
2019-01-11T06:16:28.179Z,69.80
2019-01-11T06:17:06.855Z,69.90
2019-01-11T06:17:45.872Z,69.90
2019-01-11T06:18:44.243Z,69.90
2019-01-11T06:19:24.033Z,69.90
2019-01-11T06:20:03.490Z,69.80
2019-01-11T06:20:42.813Z,69.60
2019-01-11T06:21:22.557Z,69.90
2019-01-11T06:22:01.973Z,69.70
2019-01-11T06:22:41.415Z,69.70
2019-01-11T06:23:20.946Z,69.80
2019-01-11T06:23:59.622Z,69.70
2019-01-11T06:24:38.440Z,69.80
2019-01-11T06:25:17.293Z,69.90
2019-01-11T06:25:55.974Z,69.90
2019-01-11T06:26:34.614Z,69.90
2019-01-11T06:27:13.287Z,69.90
2019-01-11T06:27:52.660Z,69.90
2019-01-11T06:28:32.715Z,69.80
2019-01-11T06:29:11.390Z,69.80
2019-01-11T06:29:50.638Z,69.80
2019-01-11T06:30:30.014Z,69.90
2019-01-11T06:31:08.793Z,69.80
2019-01-11T06:31:47.604Z,69.70
2019-01-11T06:32:26.755Z,69.80
2019-01-11T06:33:05.500Z,69.80
2019-01-11T06:33:44.257Z,69.70
2019-01-11T06:34:23.071Z,69.60
2019-01-11T06:35:01.819Z,69.70
2019-01-11T06:35:40.393Z,69.70
2019-01-11T06:36:19.175Z,69.80
2019-01-11T06:36:58.060Z,69.70
2019-01-11T06:37:36.873Z,69.80
2019-01-11T06:38:15.831Z,69.80
2019-01-11T06:38:55.176Z,69.70
2019-01-11T06:39:34.708Z,69.70
2019-01-11T06:40:14.203Z,69.60
2019-01-11T06:40:52.923Z,69.60
2019-01-11T06:41:41.352Z,69.60
2019-01-11T06:42:30.060Z,69.70
2019-01-11T06:43:08.730Z,69.70
2019-01-11T06:43:48.783Z,69.70
2019-01-11T06:44:28.734Z,69.60
2019-01-11T06:45:08.388Z,69.70
2019-01-11T06:45:47.439Z,69.70
2019-01-11T06:46:26.106Z,69.70
2019-01-11T06:47:04.811Z,69.70
2019-01-11T06:47:44.157Z,69.70
2019-01-11T06:48:51.171Z,69.70
2019-01-11T06:49:29.966Z,69.60
2019-01-11T06:50:10.136Z,69.70
2019-01-11T06:50:49.010Z,69.60
2019-01-11T06:51:28.248Z,69.60
2019-01-11T06:52:06.878Z,69.50
2019-01-11T06:52:45.545Z,69.40
2019-01-11T06:53:24.185Z,69.50
2019-01-11T06:54:03.492Z,69.50
2019-01-11T06:54:42.544Z,69.60
2019-01-11T06:55:21.333Z,70.00
2019-01-11T06:56:00.023Z,69.50
2019-01-11T06:56:39.257Z,70.20
2019-01-11T06:57:18.681Z,69.60
2019-01-11T06:57:58.076Z,69.60
2019-01-11T06:58:37.442Z,69.60
2019-01-11T06:59:16.889Z,69.30
2019-01-11T06:59:57.590Z,69.30
2019-01-11T07:00:36.448Z,69.30
2019-01-11T07:01:15.126Z,69.20
2019-01-11T07:01:53.779Z,69.30
2019-01-11T07:02:32.816Z,69.30
2019-01-11T07:03:12.147Z,69.20
2019-01-11T07:03:50.960Z,69.40
2019-01-11T07:04:29.778Z,69.40
2019-01-11T07:05:09.572Z,69.40
2019-01-11T07:05:48.887Z,69.30
2019-01-11T07:06:28.073Z,69.20
2019-01-11T07:07:07.589Z,69.20
2019-01-11T07:07:46.889Z,69.20
2019-01-11T07:08:25.576Z,69.10
2019-01-11T07:09:04.664Z,69.10
2019-01-11T07:09:43.748Z,68.90
2019-01-11T07:10:23.134Z,69.00
2019-01-11T07:11:01.806Z,69.00
2019-01-11T07:11:40.685Z,68.90
2019-01-11T07:12:20.433Z,69.00
2019-01-11T07:12:59.140Z,69.00
2019-01-11T07:13:38.285Z,68.80
2019-01-11T07:14:17.684Z,68.80
2019-01-11T07:14:56.381Z,68.70
2019-01-11T07:15:35.137Z,68.80
2019-01-11T07:16:15.014Z,68.90
2019-01-11T07:16:53.981Z,69.00
2019-01-11T07:17:33.438Z,68.90
2019-01-11T07:18:12.184Z,68.80
2019-01-11T07:18:51.182Z,68.80
2019-01-11T07:19:30.161Z,68.70
2019-01-11T07:20:10.017Z,68.80
2019-01-11T07:20:49.231Z,68.90
2019-01-11T07:21:27.940Z,68.90
2019-01-11T07:22:07.626Z,68.80
2019-01-11T07:22:47.056Z,69.50
2019-01-11T07:23:25.725Z,68.60
2019-01-11T07:24:04.477Z,68.30
2019-01-11T07:24:43.147Z,68.40
2019-01-11T07:25:21.925Z,68.40
2019-01-11T07:26:01.159Z,68.30
2019-01-11T07:26:40.613Z,68.40
2019-01-11T07:27:19.860Z,68.60
2019-01-11T07:28:03.784Z,68.50
2019-01-11T07:28:42.611Z,68.40
2019-01-11T07:29:21.768Z,68.20
2019-01-11T07:30:00.716Z,67.90
2019-01-11T07:30:56.782Z,67.90
2019-01-11T07:31:36.672Z,67.90
2019-01-11T07:32:15.343Z,68.10
2019-01-11T07:32:54.010Z,67.90
2019-01-11T07:33:32.742Z,67.90
2019-01-11T07:34:11.715Z,67.90
2019-01-11T07:34:50.979Z,67.90
2019-01-11T07:35:41.563Z,67.80
2019-01-11T07:36:40.130Z,67.80
2019-01-11T07:37:19.327Z,67.80
2019-01-11T07:37:58.069Z,67.60
2019-01-11T07:38:37.753Z,67.50
2019-01-11T07:39:31.037Z,67.50
2019-01-11T07:40:11.019Z,67.60
2019-01-11T07:40:50.288Z,67.70
2019-01-11T07:41:29.570Z,67.60
2019-01-11T07:42:08.650Z,67.90
2019-01-11T07:42:47.537Z,67.90
2019-01-11T07:43:26.163Z,67.80
2019-01-11T07:44:05.749Z,67.90
2019-01-11T07:44:44.478Z,67.80
2019-01-11T07:45:23.363Z,67.50
2019-01-11T07:46:02.101Z,67.50
2019-01-11T07:46:42.220Z,67.30
2019-01-11T07:47:21.028Z,67.30
2019-01-11T07:47:59.739Z,67.30
2019-01-11T07:48:38.511Z,67.40
2019-01-11T07:49:23.006Z,67.30
2019-01-11T07:49:57.814Z,67.50
2019-01-11T07:50:36.495Z,67.40
2019-01-11T07:51:15.418Z,67.40
2019-01-11T07:51:54.312Z,67.40
2019-01-11T07:52:33.113Z,67.50
2019-01-11T07:53:12.476Z,67.30
2019-01-11T07:53:51.849Z,67.30
2019-01-11T07:54:30.496Z,68.10
2019-01-11T07:55:09.825Z,67.30
2019-01-11T07:55:49.191Z,67.40
2019-01-11T07:56:27.860Z,67.40
2019-01-11T07:57:06.672Z,67.30
2019-01-11T07:57:45.320Z,67.30
2019-01-11T07:58:24.611Z,67.20
2019-01-11T07:59:03.640Z,67.30
2019-01-11T07:59:42.621Z,67.20
2019-01-11T08:00:21.812Z,67.30
2019-01-11T08:01:00.788Z,67.30
2019-01-11T08:01:39.509Z,68.00
2019-01-11T08:02:18.128Z,67.10
2019-01-11T08:02:56.980Z,67.00
2019-01-11T08:03:35.643Z,67.30
2019-01-11T08:04:15.279Z,67.30
2019-01-11T08:04:54.245Z,68.10
2019-01-11T08:05:33.341Z,67.20
2019-01-11T08:06:12.503Z,67.10
2019-01-11T08:06:51.992Z,67.20
2019-01-11T08:07:31.207Z,67.20
2019-01-11T08:08:10.539Z,67.20
2019-01-11T08:08:49.950Z,67.30
2019-01-11T08:09:29.485Z,67.10
2019-01-11T08:10:09.029Z,67.20
2019-01-11T08:10:47.720Z,67.10
2019-01-11T08:11:26.353Z,67.20
2019-01-11T08:12:05.042Z,67.20
2019-01-11T08:12:43.764Z,67.20
2019-01-11T08:13:22.782Z,67.00
2019-01-11T08:14:02.224Z,67.10
2019-01-11T08:14:41.649Z,67.00
2019-01-11T08:15:20.859Z,67.10
2019-01-11T08:16:00.231Z,67.10
2019-01-11T08:16:39.568Z,67.10
2019-01-11T08:17:18.199Z,67.10
2019-01-11T08:17:56.852Z,67.10
2019-01-11T08:18:35.514Z,67.10
2019-01-11T08:19:15.092Z,67.20
2019-01-11T08:19:53.845Z,67.10
2019-01-11T08:20:32.800Z,67.20
2019-01-11T08:21:11.473Z,67.20
2019-01-11T08:21:50.179Z,67.10
2019-01-11T08:22:39.803Z,67.10
2019-01-11T08:23:19.059Z,67.10
2019-01-11T08:23:57.730Z,67.30
2019-01-11T08:24:36.447Z,67.10
2019-01-11T08:25:16.252Z,67.00
2019-01-11T08:25:55.054Z,67.10
2019-01-11T08:26:34.535Z,67.30
2019-01-11T08:27:14.093Z,67.90
2019-01-11T08:27:53.738Z,67.10
2019-01-11T08:28:34.405Z,67.30
2019-01-11T08:29:13.667Z,67.30
2019-01-11T08:29:52.437Z,67.20
2019-01-11T08:30:31.328Z,67.00